createdAt,value
2022-12-31T00:02:29.565Z,90.46
2022-12-31T00:05:00.894Z,90.36
2022-12-31T00:10:01.539Z,90.29
2022-12-31T00:12:33.147Z,90.25
2022-12-31T00:15:04.438Z,90.11
2022-12-31T00:17:35.898Z,90.18
2022-12-31T00:20:05.739Z,90.10
2022-12-31T00:22:36.768Z,90.02
2022-12-31T00:25:07.276Z,89.90
2022-12-31T00:27:38.365Z,89.91
2022-12-31T00:30:09.120Z,89.91
2022-12-31T00:32:40.085Z,90.01
2022-12-31T00:35:10.382Z,90.07
2022-12-31T00:37:41.706Z,90.10
2022-12-31T00:40:14.577Z,90.25
2022-12-31T00:42:45.758Z,90.34
2022-12-31T00:45:17.173Z,90.31
2022-12-31T00:47:48.885Z,90.32
2022-12-31T00:50:20.012Z,90.44
2022-12-31T00:52:51.189Z,90.42
2022-12-31T00:55:22.151Z,90.46
2022-12-31T00:57:53.272Z,90.44
2022-12-31T01:00:24.558Z,90.56
2022-12-31T01:02:56.023Z,90.47
2022-12-31T01:05:25.680Z,90.34
2022-12-31T01:07:56.755Z,90.31
2022-12-31T01:10:57.535Z,90.31
2022-12-31T01:13:28.604Z,90.27
2022-12-31T01:15:59.583Z,90.26
2022-12-31T01:18:30.452Z,90.25
2022-12-31T01:21:04.635Z,90.04
2022-12-31T01:23:35.979Z,90.14
2022-12-31T01:26:09.265Z,90.09
2022-12-31T01:28:40.291Z,90.08
2022-12-31T01:31:15.289Z,90.08
2022-12-31T01:33:47.281Z,90.03
2022-12-31T01:36:25.364Z,90.10
2022-12-31T01:38:58.436Z,90.17
2022-12-31T01:41:32.238Z,90.13
2022-12-31T01:44:04.932Z,90.12
2022-12-31T01:46:40.661Z,90.23
2022-12-31T01:49:18.465Z,90.16
2022-12-31T01:51:54.010Z,90.22
2022-12-31T01:54:28.488Z,90.28
2022-12-31T01:56:59.963Z,90.26
2022-12-31T01:59:31.863Z,90.36
2022-12-31T02:02:03.972Z,90.46
2022-12-31T02:04:35.468Z,90.37
2022-12-31T02:07:09.021Z,90.38
2022-12-31T02:09:43.057Z,90.41
2022-12-31T02:12:14.296Z,90.39
2022-12-31T02:14:49.271Z,90.38
2022-12-31T02:17:26.802Z,90.38
2022-12-31T02:20:30.210Z,90.43
2022-12-31T02:23:14.271Z,90.36
2022-12-31T02:26:14.565Z,90.40
2022-12-31T02:29:06.347Z,90.30
2022-12-31T02:31:41.406Z,90.33
2022-12-31T02:34:20.007Z,90.35
2022-12-31T02:36:54.079Z,90.28
2022-12-31T02:39:25.543Z,90.26
2022-12-31T02:41:56.717Z,90.17
2022-12-31T02:44:30.012Z,90.14
2022-12-31T02:47:21.743Z,90.15
2022-12-31T02:50:18.949Z,90.19
2022-12-31T02:52:57.779Z,90.18
2022-12-31T02:55:36.100Z,90.16
2022-12-31T02:58:14.530Z,90.10
2022-12-31T03:01:09.158Z,89.99
2022-12-31T03:03:40.659Z,90.00
2022-12-31T03:06:12.994Z,90.04
2022-12-31T03:08:59.081Z,89.97
2022-12-31T03:11:48.124Z,89.96
2022-12-31T03:14:19.161Z,90.00
2022-12-31T03:16:50.463Z,90.06
2022-12-31T03:19:38.916Z,89.99
2022-12-31T03:22:29.350Z,90.08
2022-12-31T03:25:21.967Z,90.04
2022-12-31T03:27:53.395Z,90.05
2022-12-31T03:30:26.108Z,90.04
2022-12-31T03:32:57.585Z,90.05
2022-12-31T03:35:30.554Z,90.03
2022-12-31T03:38:01.724Z,90.04
2022-12-31T03:40:35.221Z,90.14
2022-12-31T03:43:06.951Z,90.13
2022-12-31T03:45:38.523Z,90.15
2022-12-31T03:48:11.205Z,90.21
2022-12-31T03:50:42.202Z,90.20
2022-12-31T03:53:13.457Z,90.23
2022-12-31T03:55:45.091Z,90.15
2022-12-31T03:58:16.192Z,90.15
2022-12-31T04:00:47.494Z,90.19
2022-12-31T04:03:18.654Z,90.32
2022-12-31T04:05:55.074Z,90.29
2022-12-31T04:08:26.639Z,90.27
2022-12-31T04:10:57.743Z,90.26
2022-12-31T04:13:28.734Z,90.32
2022-12-31T04:15:59.914Z,90.26
2022-12-31T04:18:30.907Z,90.33
2022-12-31T04:21:05.352Z,90.35
2022-12-31T04:23:36.477Z,90.36
2022-12-31T04:26:07.832Z,90.43
2022-12-31T04:28:38.851Z,90.33
2022-12-31T04:31:08.332Z,90.28
2022-12-31T04:33:39.379Z,90.34
2022-12-31T04:36:11.585Z,90.29
2022-12-31T04:38:42.579Z,90.22
2022-12-31T04:41:19.776Z,90.31
2022-12-31T04:43:52.581Z,90.38
2022-12-31T04:46:25.860Z,90.49
2022-12-31T04:48:57.661Z,90.38
2022-12-31T04:51:30.649Z,90.39
2022-12-31T04:54:02.191Z,90.46
2022-12-31T04:56:36.713Z,90.42
2022-12-31T04:59:08.912Z,90.41
2022-12-31T05:01:40.801Z,90.46
2022-12-31T05:04:11.989Z,90.31
2022-12-31T05:06:43.196Z,90.46
2022-12-31T05:09:14.239Z,90.48
2022-12-31T05:11:48.847Z,90.50
2022-12-31T05:14:20.163Z,90.41
2022-12-31T05:16:52.194Z,90.46
2022-12-31T05:19:23.196Z,90.42
2022-12-31T05:22:07.939Z,90.47
2022-12-31T05:24:39.291Z,90.50
2022-12-31T05:27:10.346Z,90.48
2022-12-31T05:29:41.445Z,90.49
2022-12-31T05:32:12.341Z,90.48
2022-12-31T05:34:43.735Z,90.53
2022-12-31T05:37:14.686Z,90.43
2022-12-31T05:39:45.821Z,90.53
2022-12-31T05:42:16.803Z,90.44
2022-12-31T05:44:48.226Z,90.39
2022-12-31T05:47:19.725Z,90.29
2022-12-31T05:49:50.665Z,90.34
2022-12-31T05:52:22.430Z,90.46
2022-12-31T05:54:53.582Z,90.35
2022-12-31T05:57:23.068Z,90.36
2022-12-31T05:59:54.176Z,90.41
2022-12-31T06:02:25.493Z,90.53
2022-12-31T06:04:56.701Z,90.50
2022-12-31T06:07:27.813Z,90.52
2022-12-31T06:09:59.226Z,90.48
2022-12-31T06:12:30.355Z,90.56
2022-12-31T06:15:01.458Z,90.66
2022-12-31T06:17:32.796Z,90.68
2022-12-31T06:20:08.906Z,90.70
2022-12-31T06:22:43.439Z,90.72
2022-12-31T06:25:12.926Z,90.82
2022-12-31T06:27:43.984Z,90.88
2022-12-31T06:30:16.719Z,90.90
2022-12-31T06:32:48.033Z,90.92
2022-12-31T06:35:17.334Z,90.92
2022-12-31T06:37:48.404Z,90.95
2022-12-31T06:40:19.551Z,90.96
2022-12-31T06:42:54.612Z,91.00
2022-12-31T06:45:28.927Z,90.95
2022-12-31T06:47:59.991Z,90.86
2022-12-31T06:50:31.031Z,90.97
2022-12-31T06:53:02.328Z,90.98
2022-12-31T06:55:32.557Z,91.00
2022-12-31T06:58:04.573Z,90.92
2022-12-31T07:00:36.494Z,91.06
2022-12-31T07:03:26.951Z,90.93
2022-12-31T07:06:03.923Z,90.90
2022-12-31T07:08:48.525Z,90.91
2022-12-31T07:11:23.686Z,90.84
2022-12-31T07:14:04.508Z,90.79
2022-12-31T07:16:57.421Z,90.86
2022-12-31T07:19:37.095Z,90.85
2022-12-31T07:22:11.203Z,90.94
2022-12-31T07:24:43.310Z,90.99
2022-12-31T07:27:37.216Z,91.11
2022-12-31T07:30:12.975Z,91.04
2022-12-31T07:33:10.084Z,90.99
2022-12-31T07:35:49.825Z,90.92
2022-12-31T07:38:29.383Z,91.00
2022-12-31T07:41:10.037Z,91.01
2022-12-31T07:43:54.052Z,91.02
2022-12-31T07:46:34.929Z,91.04
2022-12-31T07:49:07.209Z,90.98
2022-12-31T07:51:39.646Z,91.06
2022-12-31T07:54:14.237Z,91.04
2022-12-31T07:56:46.647Z,91.01
2022-12-31T07:59:33.605Z,91.04
2022-12-31T08:02:13.945Z,91.14
2022-12-31T08:04:55.566Z,91.22
2022-12-31T08:07:34.694Z,91.23
2022-12-31T08:10:17.337Z,91.23
2022-12-31T08:12:50.836Z,91.26
2022-12-31T08:15:30.032Z,91.22
2022-12-31T08:18:02.049Z,91.11
2022-12-31T08:20:36.136Z,91.13
2022-12-31T08:23:25.718Z,91.03
2022-12-31T08:26:25.185Z,91.08
2022-12-31T08:29:16.724Z,91.03
2022-12-31T08:31:58.930Z,90.90
2022-12-31T08:34:36.506Z,90.87
2022-12-31T08:37:12.434Z,90.89
2022-12-31T08:40:02.008Z,90.90
2022-12-31T08:42:38.204Z,91.01
2022-12-31T08:45:20.941Z,90.98
2022-12-31T08:48:01.875Z,90.97
2022-12-31T08:50:35.783Z,91.03
2022-12-31T08:53:08.369Z,91.03
2022-12-31T08:55:40.885Z,90.99
2022-12-31T08:58:24.308Z,90.94
2022-12-31T09:00:59.102Z,90.85
2022-12-31T09:03:43.390Z,90.82
2022-12-31T09:06:21.619Z,90.83
2022-12-31T09:08:59.053Z,90.80
2022-12-31T09:11:35.149Z,90.88
2022-12-31T09:14:26.850Z,90.85
2022-12-31T09:17:05.882Z,90.84
2022-12-31T09:19:37.042Z,90.85
2022-12-31T09:22:08.828Z,90.85
2022-12-31T09:24:41.577Z,90.86
2022-12-31T09:27:23.849Z,90.89
2022-12-31T09:30:04.055Z,90.78
2022-12-31T09:32:43.114Z,90.94
2022-12-31T09:35:23.769Z,90.76
2022-12-31T09:38:00.459Z,90.87
2022-12-31T09:40:50.534Z,90.79
2022-12-31T09:44:02.964Z,90.90
2022-12-31T09:47:04.757Z,91.02
2022-12-31T09:50:04.860Z,91.10
2022-12-31T09:52:54.404Z,91.22
2022-12-31T09:55:38.441Z,91.08
2022-12-31T09:58:25.091Z,91.17
2022-12-31T10:01:03.883Z,91.17
2022-12-31T10:03:53.313Z,91.15
2022-12-31T10:06:29.520Z,91.16
2022-12-31T10:09:33.276Z,91.11
2022-12-31T10:12:37.205Z,91.12
2022-12-31T10:15:33.570Z,91.25
2022-12-31T10:18:15.005Z,91.23
2022-12-31T10:21:07.451Z,91.22
2022-12-31T10:24:12.640Z,91.28
2022-12-31T10:27:00.045Z,91.29
2022-12-31T10:29:43.385Z,91.31
2022-12-31T10:32:26.274Z,91.34
2022-12-31T10:35:14.364Z,91.33
2022-12-31T10:37:54.303Z,91.41
2022-12-31T10:40:41.011Z,91.52
2022-12-31T10:43:44.715Z,91.58
2022-12-31T10:46:49.420Z,91.46
2022-12-31T10:49:54.279Z,91.29
2022-12-31T10:53:00.534Z,91.52
2022-12-31T10:56:01.157Z,91.22
2022-12-31T10:58:58.204Z,91.16
2022-12-31T11:01:39.916Z,91.22
2022-12-31T11:04:40.761Z,91.18
2022-12-31T11:07:54.774Z,91.26
2022-12-31T11:10:52.813Z,91.16
2022-12-31T11:13:50.979Z,91.07
2022-12-31T11:16:39.161Z,90.85
2022-12-31T11:19:22.649Z,90.85
2022-12-31T11:22:08.533Z,90.80
2022-12-31T11:24:55.617Z,90.75
2022-12-31T11:27:47.608Z,90.65
2022-12-31T11:30:28.721Z,90.69
2022-12-31T11:33:20.942Z,90.61
2022-12-31T11:36:10.442Z,90.56
2022-12-31T11:38:52.095Z,90.51
2022-12-31T11:41:29.735Z,90.49
2022-12-31T11:44:16.184Z,90.49
2022-12-31T11:46:59.361Z,90.52
2022-12-31T11:49:49.131Z,90.56
2022-12-31T11:52:38.671Z,90.54
2022-12-31T11:55:31.715Z,90.51
2022-12-31T11:58:12.704Z,90.43
2022-12-31T12:00:52.293Z,90.31
2022-12-31T12:03:24.775Z,90.39
2022-12-31T12:05:57.140Z,90.28
2022-12-31T12:08:31.608Z,90.32
2022-12-31T12:11:07.908Z,90.30
2022-12-31T12:13:39.073Z,90.22
2022-12-31T12:16:11.400Z,90.12
2022-12-31T12:18:47.979Z,90.17
2022-12-31T12:21:21.937Z,90.19
2022-12-31T12:24:01.434Z,90.10
2022-12-31T12:26:37.621Z,90.01
2022-12-31T12:29:21.532Z,90.09
2022-12-31T12:32:00.257Z,90.08
2022-12-31T12:34:33.346Z,90.10
2022-12-31T12:37:04.951Z,89.88
2022-12-31T12:39:36.976Z,89.70
2022-12-31T12:42:12.712Z,89.85
2022-12-31T12:44:43.791Z,90.00
2022-12-31T12:47:19.537Z,90.06
2022-12-31T12:49:55.232Z,90.04
2022-12-31T12:52:53.848Z,90.02
2022-12-31T12:55:38.325Z,89.82
2022-12-31T12:58:19.388Z,89.93
2022-12-31T13:01:01.281Z,89.76
2022-12-31T13:07:07.107Z,89.99
2022-12-31T13:09:56.788Z,89.95
2022-12-31T13:13:05.284Z,89.83
2022-12-31T13:15:35.303Z,89.81
2022-12-31T13:18:24.276Z,89.87
2022-12-31T13:21:03.006Z,89.86
2022-12-31T13:23:40.077Z,89.87
2022-12-31T13:26:15.941Z,89.87
2022-12-31T13:28:47.454Z,89.79
2022-12-31T13:31:24.127Z,89.84
2022-12-31T13:34:00.533Z,89.93
2022-12-31T13:36:35.409Z,90.10
2022-12-31T13:39:11.649Z,90.17
2022-12-31T13:41:47.846Z,90.07
2022-12-31T13:44:26.337Z,90.10
2022-12-31T13:47:02.660Z,90.25
2022-12-31T13:49:37.795Z,90.39
2022-12-31T13:52:22.639Z,90.40
2022-12-31T13:55:02.779Z,90.52
2022-12-31T13:57:43.959Z,90.54
2022-12-31T14:00:24.159Z,90.47
2022-12-31T14:03:03.343Z,90.43
2022-12-31T14:05:38.987Z,90.46
2022-12-31T14:08:10.812Z,90.52
2022-12-31T14:10:57.141Z,90.43
2022-12-31T14:13:46.627Z,90.46
2022-12-31T14:16:26.261Z,90.43
2022-12-31T14:19:07.220Z,90.40
2022-12-31T14:21:45.433Z,90.26
2022-12-31T14:24:25.592Z,90.21
2022-12-31T14:27:01.421Z,90.24
2022-12-31T14:29:40.944Z,90.31
2022-12-31T14:32:30.582Z,90.15
2022-12-31T14:35:18.508Z,90.06
2022-12-31T14:37:58.110Z,90.29
2022-12-31T14:40:38.927Z,90.30
2022-12-31T14:43:19.945Z,90.23
2022-12-31T14:46:04.078Z,90.11
2022-12-31T14:48:44.725Z,90.13
2022-12-31T14:51:16.354Z,90.15
2022-12-31T14:53:57.448Z,90.12
2022-12-31T14:56:39.153Z,89.90
2022-12-31T14:59:27.350Z,89.96
2022-12-31T15:01:59.606Z,90.00
2022-12-31T15:04:45.783Z,89.85
2022-12-31T15:07:24.151Z,89.79
2022-12-31T15:10:10.914Z,89.89
2022-12-31T15:13:03.949Z,90.00
2022-12-31T15:15:58.263Z,90.09
2022-12-31T15:18:44.982Z,90.35
2022-12-31T15:21:35.720Z,90.44
2022-12-31T15:24:18.972Z,90.59
2022-12-31T15:26:57.559Z,90.51
2022-12-31T15:29:32.988Z,90.36
2022-12-31T15:32:08.481Z,90.19
2022-12-31T15:34:39.780Z,90.44
2022-12-31T15:37:32.460Z,90.47
2022-12-31T15:40:20.917Z,90.57
2022-12-31T15:42:55.548Z,90.59
2022-12-31T15:45:32.841Z,90.48
2022-12-31T15:48:10.112Z,90.42
2022-12-31T15:50:42.969Z,90.46
2022-12-31T15:53:27.707Z,90.39
2022-12-31T15:56:00.607Z,90.39
2022-12-31T15:58:36.316Z,90.08
2022-12-31T16:01:16.100Z,89.99
2022-12-31T16:03:50.741Z,89.98
2022-12-31T16:06:22.215Z,90.01
2022-12-31T16:08:53.413Z,89.96
2022-12-31T16:11:25.653Z,89.86
2022-12-31T16:13:58.991Z,89.97
2022-12-31T16:16:31.906Z,89.97
2022-12-31T16:19:03.324Z,90.00
2022-12-31T16:21:35.949Z,89.95
2022-12-31T16:24:22.965Z,89.83
2022-12-31T16:27:01.443Z,89.98
2022-12-31T16:29:33.574Z,89.89
2022-12-31T16:32:05.368Z,89.66
2022-12-31T16:34:39.513Z,89.53
2022-12-31T16:37:18.341Z,89.41
2022-12-31T16:40:19.488Z,89.54
2022-12-31T16:42:53.180Z,89.56
2022-12-31T16:45:34.501Z,89.32
2022-12-31T16:48:16.572Z,89.09
2022-12-31T16:50:50.560Z,89.13
2022-12-31T16:53:26.237Z,89.12
2022-12-31T16:56:01.316Z,89.20
2022-12-31T16:58:34.541Z,89.36
2022-12-31T17:01:17.480Z,89.27
2022-12-31T17:03:52.380Z,89.14
2022-12-31T17:06:24.300Z,89.01
2022-12-31T17:09:12.806Z,89.17
2022-12-31T17:11:50.509Z,89.16
2022-12-31T17:14:24.436Z,89.17
2022-12-31T17:17:03.807Z,89.09
2022-12-31T17:19:46.716Z,88.90
2022-12-31T17:22:32.767Z,88.77
2022-12-31T17:25:09.489Z,88.77
2022-12-31T17:27:40.609Z,88.91
2022-12-31T17:30:36.485Z,89.02
2022-12-31T17:33:32.206Z,89.20
2022-12-31T17:36:24.439Z,89.46
2022-12-31T17:38:55.512Z,89.34
2022-12-31T17:41:28.669Z,89.38
2022-12-31T17:44:00.014Z,89.25
2022-12-31T17:46:31.275Z,89.34
2022-12-31T17:49:04.465Z,89.39
2022-12-31T17:51:35.691Z,89.31
2022-12-31T17:54:13.403Z,89.32
2022-12-31T17:56:44.735Z,89.16
2022-12-31T17:59:19.351Z,89.03
2022-12-31T18:01:50.990Z,89.03
2022-12-31T18:04:22.778Z,89.07
2022-12-31T18:06:53.950Z,88.96
2022-12-31T18:09:25.572Z,89.04
2022-12-31T18:12:01.404Z,89.25
2022-12-31T18:14:32.927Z,89.35
2022-12-31T18:17:04.008Z,89.22
2022-12-31T18:22:26.244Z,89.34
2022-12-31T18:24:57.444Z,89.66
2022-12-31T18:27:27.109Z,89.79
2022-12-31T18:30:04.557Z,89.71
2022-12-31T18:32:38.521Z,90.02
2022-12-31T18:35:48.565Z,89.96
2022-12-31T18:38:12.355Z,89.90
2022-12-31T18:40:46.788Z,90.08
2022-12-31T18:43:20.105Z,90.00
2022-12-31T18:45:52.129Z,90.06
2022-12-31T18:48:23.114Z,90.03
2022-12-31T18:50:54.351Z,89.99
2022-12-31T18:53:26.227Z,89.95
2022-12-31T18:55:58.608Z,89.90
2022-12-31T18:58:29.867Z,90.00
2022-12-31T19:01:00.026Z,90.00
2022-12-31T19:03:31.345Z,89.92
2022-12-31T19:06:01.022Z,89.95
2022-12-31T19:08:33.089Z,89.96
2022-12-31T19:11:04.573Z,90.08
2022-12-31T19:13:35.696Z,90.20
2022-12-31T19:16:05.606Z,90.33
2022-12-31T19:18:37.056Z,90.42
2022-12-31T19:21:14.218Z,90.26
2022-12-31T19:23:45.934Z,90.08
2022-12-31T19:26:22.832Z,89.94
2022-12-31T19:28:54.140Z,89.86
2022-12-31T19:31:25.164Z,89.91
2022-12-31T19:33:56.533Z,89.97
2022-12-31T19:36:26.068Z,89.70
2022-12-31T19:38:57.102Z,89.80
2022-12-31T19:41:28.073Z,89.99
2022-12-31T19:43:59.322Z,90.04
2022-12-31T19:46:30.411Z,90.00
2022-12-31T19:49:01.363Z,90.03
2022-12-31T19:51:31.013Z,90.15
2022-12-31T19:54:02.002Z,90.11
2022-12-31T19:56:31.498Z,90.03
2022-12-31T19:59:06.820Z,90.16
2022-12-31T20:01:37.964Z,90.08
2022-12-31T20:04:09.191Z,90.00
2022-12-31T20:06:38.733Z,90.09
2022-12-31T20:09:09.658Z,90.00
2022-12-31T20:11:40.755Z,89.95
2022-12-31T20:14:12.016Z,89.98
2022-12-31T20:16:41.552Z,89.96
2022-12-31T20:19:11.799Z,89.97
2022-12-31T20:21:44.571Z,89.92
2022-12-31T20:24:15.634Z,89.89
2022-12-31T20:26:45.177Z,89.90
2022-12-31T20:29:16.219Z,89.99
2022-12-31T20:31:48.077Z,89.83
2022-12-31T20:34:19.133Z,90.01
2022-12-31T20:36:50.184Z,90.04
2022-12-31T20:39:21.708Z,90.08
2022-12-31T20:41:53.241Z,90.06
2022-12-31T20:44:24.392Z,90.06
2022-12-31T20:46:55.423Z,90.03
2022-12-31T20:49:52.097Z,89.87
2022-12-31T20:52:17.497Z,89.87
2022-12-31T20:54:48.496Z,89.71
2022-12-31T20:57:19.673Z,89.64
2022-12-31T20:59:49.496Z,89.73
2022-12-31T21:02:29.471Z,89.85
2022-12-31T21:05:06.336Z,89.92
2022-12-31T21:07:37.746Z,89.87
2022-12-31T21:10:10.151Z,89.60
2022-12-31T21:12:44.595Z,89.73
2022-12-31T21:15:15.806Z,89.79
2022-12-31T21:17:47.444Z,89.80
2022-12-31T21:20:18.907Z,89.75
2022-12-31T21:22:50.082Z,89.64
2022-12-31T21:25:19.668Z,89.69
2022-12-31T21:27:50.892Z,89.55
2022-12-31T21:30:22.001Z,89.60
2022-12-31T21:32:53.122Z,89.60
2022-12-31T21:38:15.398Z,89.51
2022-12-31T21:40:46.637Z,89.38
2022-12-31T21:43:18.305Z,89.56
2022-12-31T21:46:00.213Z,89.63
2022-12-31T21:48:31.436Z,89.65
2022-12-31T21:51:12.889Z,89.62
2022-12-31T21:53:44.114Z,89.56
2022-12-31T21:56:14.736Z,89.62
2022-12-31T21:59:08.453Z,89.48
2022-12-31T22:01:57.149Z,89.59
2022-12-31T22:05:00.932Z,89.70
2022-12-31T22:07:19.828Z,89.99
2022-12-31T22:09:51.412Z,89.92
2022-12-31T22:12:22.565Z,89.81
2022-12-31T22:15:14.616Z,89.76
2022-12-31T22:17:43.054Z,89.63
2022-12-31T22:20:27.137Z,89.57
2022-12-31T22:22:58.441Z,89.62
2022-12-31T22:25:29.700Z,89.71
2022-12-31T22:28:36.272Z,89.76
2022-12-31T22:30:51.094Z,90.13
2022-12-31T22:33:22.053Z,89.92
2022-12-31T22:36:02.547Z,89.99
2022-12-31T22:38:34.091Z,89.93
2022-12-31T22:41:08.159Z,90.02
2022-12-31T22:43:41.100Z,90.09
2022-12-31T22:46:14.643Z,90.09
2022-12-31T22:48:45.894Z,89.99
2022-12-31T22:51:18.151Z,90.12
2022-12-31T22:53:51.780Z,89.98
2022-12-31T22:56:22.972Z,89.98
2022-12-31T22:58:52.388Z,89.99
2022-12-31T23:01:25.032Z,90.11
2022-12-31T23:03:57.376Z,90.01
2022-12-31T23:06:29.185Z,90.07
2022-12-31T23:09:17.832Z,90.16
2022-12-31T23:11:48.868Z,90.17
2022-12-31T23:14:35.907Z,90.29
2022-12-31T23:17:30.213Z,90.31
2022-12-31T23:20:20.637Z,90.37
2022-12-31T23:23:10.403Z,90.19
2022-12-31T23:25:43.990Z,90.28
2022-12-31T23:28:17.767Z,90.34
2022-12-31T23:30:49.212Z,90.09
2022-12-31T23:33:22.239Z,90.25
2022-12-31T23:36:06.093Z,90.28
2022-12-31T23:38:37.322Z,90.29
2022-12-31T23:41:16.742Z,90.26
2022-12-31T23:43:49.219Z,90.22
2022-12-31T23:46:23.398Z,90.18
2022-12-31T23:48:54.874Z,89.90
2022-12-31T23:51:26.031Z,89.93
2022-12-31T23:53:57.192Z,89.82
2022-12-31T23:56:28.223Z,89.97
2022-12-31T23:59:00.902Z,89.85
